Time;durP1;ratioP1;P1;durP2;ratioP2;P2;SDS_P1;SDS_P2;PMS_P1;PMS_P2;Temp;Humidity;BMP_temperature;BMP_pressure;BME280_temperature;BME280_humidity;BME280_pressure;Samples;Min_cycle;Max_cycle;Signal;HPM_P1;HPM_P2
2024/04/15 00:00:20;;;;;;;1.48;1.17;;;20.80;91.60;;;;;;5453438;26;20039;-40
2024/04/15 00:02:46;;;;;;;2.40;0.90;;;20.80;91.60;;;;;;5453530;26;20035;-42
2024/04/15 00:05:11;;;;;;;2.60;1.40;;;20.80;91.60;;;;;;5453464;26;20002;-42
2024/04/15 00:07:37;;;;;;;2.38;1.30;;;20.80;91.60;;;;;;5453295;26;20053;-42
2024/04/15 00:10:03;;;;;;;1.60;1.00;;;20.80;91.60;;;;;;5453184;26;19995;-42
2024/04/15 00:12:29;;;;;;;3.70;1.30;;;20.80;91.60;;;;;;5453982;26;20329;-41
2024/04/15 00:14:54;;;;;;;1.75;1.30;;;20.80;91.60;;;;;;5453031;26;20006;-41
2024/04/15 00:17:20;;;;;;;1.45;1.35;;;20.80;91.60;;;;;;5453304;26;20005;-43
2024/04/15 00:19:45;;;;;;;2.13;1.30;;;20.80;91.60;;;;;;5453143;26;19994;-43
2024/04/15 00:22:11;;;;;;;1.90;1.00;;;20.80;91.60;;;;;;5453103;26;19995;-42
2024/04/15 00:24:37;;;;;;;3.67;1.20;;;20.80;91.70;;;;;;5453140;26;20002;-42
2024/04/15 00:27:02;;;;;;;1.95;1.00;;;20.80;91.70;;;;;;5453046;26;20009;-42
2024/04/15 00:29:28;;;;;;;1.92;1.23;;;20.80;91.60;;;;;;5453040;26;19994;-40
2024/04/15 00:31:54;;;;;;;3.15;1.20;;;20.80;91.70;;;;;;5452822;26;20333;-41
2024/04/15 00:34:19;;;;;;;1.75;1.20;;;20.80;91.70;;;;;;5453029;26;20027;-41
2024/04/15 00:36:45;;;;;;;2.35;1.27;;;20.80;91.70;;;;;;5452965;26;20007;-41
2024/04/15 00:39:11;;;;;;;3.28;1.17;;;20.80;91.70;;;;;;5452715;26;20340;-44
2024/04/15 00:41:37;;;;;;;2.67;1.10;;;20.80;91.70;;;;;;5452771;26;20011;-40
2024/04/15 00:44:03;;;;;;;1.58;1.02;;;20.80;91.70;;;;;;5452812;26;19999;-42
2024/04/15 00:46:29;;;;;;;1.63;1.30;;;20.80;91.70;;;;;;5452967;26;20005;-42
2024/04/15 00:48:56;;;;;;;4.70;1.30;;;20.80;91.70;;;;;;5451248;26;19995;-41
2024/04/15 00:51:22;;;;;;;2.15;1.20;;;20.80;91.70;;;;;;5452716;26;20007;-41
2024/04/15 00:53:50;;;;;;;3.55;1.33;;;20.70;91.60;;;;;;5452630;26;19999;-41
2024/04/15 00:56:17;;;;;;;2.22;1.27;;;20.80;91.70;;;;;;5452624;26;20010;-41
2024/04/15 00:58:43;;;;;;;1.23;1.08;;;20.80;91.70;;;;;;5452587;26;20026;-42
2024/04/15 01:01:10;;;;;;;1.73;1.23;;;20.80;91.70;;;;;;5452762;26;20339;-42
2024/04/15 01:03:35;;;;;;;2.15;1.20;;;20.70;91.60;;;;;;5452489;26;20319;-44
2024/04/15 01:06:02;;;;;;;2.00;1.10;;;20.70;91.60;;;;;;5452630;26;19995;-42
2024/04/15 01:08:27;;;;;;;2.22;1.20;;;20.80;91.70;;;;;;5452328;26;20325;-40
2024/04/15 01:10:53;;;;;;;1.55;1.00;;;20.70;91.60;;;;;;5452415;26;20023;-42
2024/04/15 01:13:19;;;;;;;1.30;0.95;;;20.70;91.60;;;;;;5452359;26;20008;-41
2024/04/15 01:15:45;;;;;;;1.20;1.10;;;20.70;91.70;;;;;;5452646;26;19991;-41
2024/04/15 01:18:10;;;;;;;1.80;1.17;;;20.70;91.60;;;;;;5452322;26;20004;-42
2024/04/15 01:20:36;;;;;;;1.10;1.00;;;20.70;91.70;;;;;;5452253;26;20417;-40
2024/04/15 01:23:08;;;;;;;3.63;1.33;;;20.70;91.60;;;;;;5452329;26;20031;-42
2024/04/15 01:25:34;;;;;;;1.55;0.98;;;20.70;91.60;;;;;;5452277;26;20332;-41
2024/04/15 01:28:01;;;;;;;1.67;1.00;;;20.70;91.70;;;;;;5452159;26;20040;-43
2024/04/15 01:30:26;;;;;;;2.08;1.35;;;20.70;91.70;;;;;;5452233;26;20003;-40
2024/04/15 01:32:52;;;;;;;3.20;1.00;;;20.70;91.70;;;;;;5450465;26;19995;-40
2024/04/15 01:35:19;;;;;;;1.70;1.13;;;20.70;91.70;;;;;;5451978;26;20002;-42
2024/04/15 01:37:48;;;;;;;1.58;1.20;;;20.70;91.70;;;;;;5452441;26;19999;-42
2024/04/15 01:40:14;;;;;;;1.40;0.90;;;20.70;91.70;;;;;;5452032;26;20009;-42
2024/04/15 01:42:40;;;;;;;1.40;1.08;;;20.70;91.70;;;;;;5452507;26;19994;-42
2024/04/15 01:45:06;;;;;;;1.48;1.17;;;20.70;91.70;;;;;;5452208;26;19991;-41
2024/04/15 01:47:31;;;;;;;2.15;1.08;;;20.70;91.70;;;;;;5451910;26;19995;-41
2024/04/15 01:49:57;;;;;;;1.80;1.00;;;20.70;91.70;;;;;;5451870;26;20068;-41
2024/04/15 01:52:22;;;;;;;1.65;1.05;;;20.60;91.60;;;;;;5451723;26;19995;-42
2024/04/15 01:54:48;;;;;;;1.55;1.00;;;20.70;91.70;;;;;;5451750;26;19995;-42
2024/04/15 01:57:14;;;;;;;1.25;1.00;;;20.60;91.60;;;;;;5451778;26;19995;-42
2024/04/15 01:59:39;;;;;;;1.20;0.90;;;20.60;91.60;;;;;;5451175;26;19994;-42
2024/04/15 02:02:05;;;;;;;1.67;1.10;;;20.70;91.70;;;;;;5451649;26;20007;-43
2024/04/15 02:04:30;;;;;;;1.10;1.00;;;20.60;91.60;;;;;;5451900;26;20354;-42
2024/04/15 02:06:56;;;;;;;1.52;1.05;;;20.60;91.70;;;;;;5451659;26;19998;-42
2024/04/15 02:09:21;;;;;;;1.40;1.10;;;20.70;91.70;;;;;;5451445;26;20062;-41
2024/04/15 02:11:47;;;;;;;1.70;0.90;;;20.60;91.70;;;;;;5451503;26;19999;-40
2024/04/15 02:14:13;;;;;;;1.95;1.10;;;20.60;91.60;;;;;;5451533;26;20440;-40
2024/04/15 02:16:38;;;;;;;1.70;1.00;;;20.60;91.70;;;;;;5451891;26;19998;-42
2024/04/15 02:19:04;;;;;;;1.85;0.95;;;20.60;91.70;;;;;;5451288;26;19999;-42
2024/04/15 02:21:30;;;;;;;1.48;0.85;;;20.60;91.70;;;;;;5451381;26;20003;-42
2024/04/15 02:23:55;;;;;;;1.83;1.00;;;20.60;91.70;;;;;;5451504;26;20063;-42
2024/04/15 02:26:21;;;;;;;3.95;1.08;;;20.60;91.70;;;;;;5451257;26;20019;-42
2024/04/15 02:28:47;;;;;;;2.22;1.15;;;20.60;91.70;;;;;;5451174;26;19995;-41
2024/04/15 02:31:13;;;;;;;2.13;0.90;;;20.60;91.70;;;;;;5451201;26;20006;-42
2024/04/15 02:33:38;;;;;;;1.90;1.00;;;20.60;91.70;;;;;;5451054;26;20484;-42
2024/04/15 02:36:04;;;;;;;1.10;0.90;;;20.60;91.70;;;;;;5451069;26;20011;-40
2024/04/15 02:38:29;;;;;;;1.10;0.93;;;20.60;91.70;;;;;;5451228;26;20003;-42
2024/04/15 02:40:55;;;;;;;1.10;0.90;;;20.60;91.60;;;;;;5451026;26;20067;-40
2024/04/15 02:43:21;;;;;;;1.55;0.77;;;20.60;91.60;;;;;;5451004;26;20376;-44
2024/04/15 02:45:47;;;;;;;1.52;1.05;;;20.60;91.70;;;;;;5451070;26;20443;-42
2024/04/15 02:48:15;;;;;;;1.20;0.80;;;20.50;91.60;;;;;;5451384;26;20006;-41
2024/04/15 02:50:41;;;;;;;1.35;1.00;;;20.60;91.70;;;;;;5451005;26;20029;-42
2024/04/15 02:53:07;;;;;;;1.27;0.85;;;20.60;91.70;;;;;;5450843;26;19999;-40
2024/04/15 02:55:32;;;;;;;1.08;0.80;;;20.60;91.70;;;;;;5450757;26;19994;-40
2024/04/15 02:57:58;;;;;;;1.23;0.98;;;20.50;92.00;;;;;;5450687;26;20506;-42
2024/04/15 03:00:24;;;;;;;1.23;0.90;;;20.50;91.70;;;;;;5450648;26;19994;-42
2024/04/15 03:02:51;;;;;;;1.65;1.00;;;20.60;91.70;;;;;;5450608;26;19998;-41
2024/04/15 03:05:16;;;;;;;1.63;0.90;;;20.50;91.70;;;;;;5451089;26;19994;-41
2024/04/15 03:07:42;;;;;;;1.30;0.93;;;20.50;91.70;;;;;;5450409;26;20010;-42
2024/04/15 03:10:08;;;;;;;1.20;1.00;;;20.50;91.70;;;;;;5450538;26;20009;-42
2024/04/15 03:12:33;;;;;;;1.75;0.95;;;20.60;91.70;;;;;;5452842;26;20006;-41
2024/04/15 03:14:59;;;;;;;1.00;0.90;;;20.50;91.70;;;;;;5454697;26;20002;-41
2024/04/15 03:17:25;;;;;;;3.05;1.10;;;20.50;91.70;;;;;;5453906;26;20003;-42
2024/04/15 03:19:53;;;;;;;2.15;1.00;;;20.50;91.70;;;;;;5454107;26;20471;-42
2024/04/15 03:22:19;;;;;;;1.13;0.90;;;20.50;91.70;;;;;;5453960;26;20010;-41
2024/04/15 03:24:48;;;;;;;2.00;1.00;;;20.50;91.70;;;;;;5453945;26;19995;-42
2024/04/15 03:27:14;;;;;;;1.90;1.10;;;20.50;91.70;;;;;;5454040;26;19995;-42
2024/04/15 03:29:39;;;;;;;2.25;1.02;;;20.50;91.70;;;;;;5453827;26;20455;-42
2024/04/15 03:32:06;;;;;;;1.35;0.95;;;20.50;91.70;;;;;;5453653;26;20410;-41
2024/04/15 03:34:31;;;;;;;1.83;0.90;;;20.40;91.70;;;;;;5453931;26;20269;-41
2024/04/15 03:36:57;;;;;;;1.00;0.90;;;20.40;91.70;;;;;;5453766;26;20005;-41
2024/04/15 03:39:22;;;;;;;1.42;0.90;;;20.40;91.70;;;;;;5453812;26;20372;-41
2024/04/15 03:41:48;;;;;;;2.03;1.00;;;20.40;91.70;;;;;;5453764;26;20376;-42
2024/04/15 03:44:14;;;;;;;3.58;1.00;;;20.40;91.70;;;;;;5453710;26;20003;-41
2024/04/15 03:46:39;;;;;;;1.20;0.90;;;20.40;91.70;;;;;;5453554;26;20013;-41
2024/04/15 03:49:05;;;;;;;1.02;0.80;;;20.40;91.70;;;;;;5453908;26;19998;-42
2024/04/15 03:51:30;;;;;;;1.67;0.90;;;20.40;91.70;;;;;;5453468;26;20002;-41
2024/04/15 03:53:56;;;;;;;1.80;1.10;;;20.50;91.70;;;;;;5453626;26;20011;-42
2024/04/15 03:56:22;;;;;;;1.58;0.90;;;20.40;91.70;;;;;;5453557;26;20003;-42
2024/04/15 03:58:47;;;;;;;2.08;0.85;;;20.40;91.70;;;;;;5453487;26;20370;-42
2024/04/15 04:01:13;;;;;;;1.00;0.90;;;20.40;91.70;;;;;;5453255;26;20008;-40
2024/04/15 04:03:40;;;;;;;2.75;1.10;;;20.40;91.70;;;;;;5453300;26;19994;-42
2024/04/15 04:06:06;;;;;;;1.50;0.90;;;20.40;91.70;;;;;;5453429;26;20005;-41
2024/04/15 04:08:31;;;;;;;1.30;0.90;;;20.40;91.70;;;;;;5453312;26;20434;-42
2024/04/15 04:11:04;;;;;;;1.60;0.80;;;20.40;91.70;;;;;;5453232;26;20006;-41
2024/04/15 04:13:33;;;;;;;2.25;1.10;;;20.40;91.70;;;;;;5453345;26;20010;-40
2024/04/15 04:15:58;;;;;;;1.23;0.93;;;20.40;91.80;;;;;;5453107;26;20431;-42
2024/04/15 04:18:24;;;;;;;1.00;0.80;;;20.30;91.70;;;;;;5453271;26;20270;-40
2024/04/15 04:20:49;;;;;;;1.02;0.80;;;20.40;91.70;;;;;;5453044;26;20010;-41
2024/04/15 04:23:15;;;;;;;2.83;1.30;;;20.40;91.70;;;;;;5452782;26;20492;-42
2024/04/15 04:25:40;;;;;;;3.83;1.33;;;20.30;90.60;;;;;;5453228;26;19991;-45
2024/04/15 04:28:06;;;;;;;5.13;1.20;;;20.20;90.70;;;;;;5453048;26;20514;-44
2024/04/15 04:30:34;;;;;;;5.95;1.15;;;20.10;90.80;;;;;;5452953;26;20006;-44
2024/04/15 04:33:02;;;;;;;3.15;1.52;;;20.00;90.90;;;;;;5453192;26;20422;-43
2024/04/15 04:35:29;;;;;;;6.25;1.20;;;20.00;91.00;;;;;;5453140;26;20010;-41
2024/04/15 04:37:55;;;;;;;4.32;1.10;;;20.00;91.00;;;;;;5452868;26;20005;-41
2024/04/15 04:40:21;;;;;;;3.35;1.20;;;20.10;91.10;;;;;;5452905;26;20003;-43
2024/04/15 04:42:47;;;;;;;3.63;1.30;;;20.10;91.10;;;;;;5452893;26;20420;-41
2024/04/15 04:45:13;;;;;;;3.88;1.20;;;20.10;91.20;;;;;;5453329;26;20072;-40
2024/04/15 04:47:38;;;;;;;2.10;1.13;;;20.10;91.20;;;;;;5452826;26;20010;-43
2024/04/15 04:50:04;;;;;;;2.85;1.15;;;20.10;91.30;;;;;;5452807;26;20006;-42
2024/04/15 04:52:30;;;;;;;2.25;1.10;;;20.10;91.30;;;;;;5452804;26;19995;-41
2024/04/15 04:54:56;;;;;;;2.88;1.30;;;20.10;91.40;;;;;;5452701;26;19991;-41
2024/04/15 04:57:21;;;;;;;1.52;0.93;;;20.10;91.40;;;;;;5452576;26;20009;-43
2024/04/15 04:59:52;;;;;;;4.45;1.17;;;20.10;91.70;;;;;;5452624;26;20007;-40
2024/04/15 05:02:18;;;;;;;2.83;1.15;;;20.10;91.40;;;;;;5452770;26;20007;-41
2024/04/15 05:04:43;;;;;;;2.38;1.20;;;20.10;91.50;;;;;;5452463;26;20099;-44
2024/04/15 05:07:09;;;;;;;3.08;1.17;;;20.10;91.50;;;;;;5452622;26;20010;-41
2024/04/15 05:09:34;;;;;;;1.48;0.93;;;20.10;91.50;;;;;;5452413;26;19999;-40
2024/04/15 05:12:00;;;;;;;2.63;0.93;;;20.10;91.50;;;;;;5452222;26;20352;-41
2024/04/15 05:14:26;;;;;;;4.28;1.20;;;20.10;91.60;;;;;;5452407;26;20337;-41
2024/04/15 05:16:52;;;;;;;3.25;1.23;;;20.10;91.60;;;;;;5452605;26;20029;-44
2024/04/15 05:19:17;;;;;;;2.08;1.02;;;20.00;91.50;;;;;;5452296;26;20060;-43
2024/04/15 05:21:43;;;;;;;1.05;0.80;;;20.00;91.60;;;;;;5452321;26;19994;-44
2024/04/15 05:24:08;;;;;;;1.42;1.00;;;20.00;91.60;;;;;;5452331;26;20062;-40
2024/04/15 05:26:34;;;;;;;1.40;0.85;;;20.00;91.60;;;;;;5450404;26;20031;-44
2024/04/15 05:28:59;;;;;;;2.33;1.10;;;20.00;91.60;;;;;;5452120;26;20010;-44
2024/04/15 05:31:25;;;;;;;2.17;1.10;;;20.00;91.70;;;;;;5452118;26;20321;-43
2024/04/15 05:33:51;;;;;;;2.47;1.20;;;20.00;91.70;;;;;;5451417;26;20006;-40
2024/04/15 05:36:16;;;;;;;1.98;0.77;;;20.00;91.70;;;;;;5452081;26;20553;-41
2024/04/15 05:38:42;;;;;;;1.63;0.93;;;20.00;91.70;;;;;;5452174;26;20071;-40
2024/04/15 05:41:07;;;;;;;1.88;1.00;;;20.00;91.70;;;;;;5451934;26;20005;-40
2024/04/15 05:43:33;;;;;;;1.20;0.80;;;20.00;91.70;;;;;;5452056;26;20398;-42
2024/04/15 05:45:59;;;;;;;1.23;0.80;;;20.00;92.10;;;;;;5452011;26;20467;-45
2024/04/15 05:48:25;;;;;;;1.10;0.85;;;20.00;91.80;;;;;;5451931;26;19995;-43
2024/04/15 05:50:50;;;;;;;2.58;0.90;;;20.00;91.80;;;;;;5450233;26;19995;-44
2024/04/15 05:53:16;;;;;;;2.60;1.00;;;20.00;91.80;;;;;;5451762;26;20071;-43
2024/04/15 05:55:41;;;;;;;1.88;0.95;;;19.90;91.80;;;;;;5451923;26;20002;-45
2024/04/15 05:58:07;;;;;;;1.73;1.05;;;20.00;91.80;;;;;;5451897;26;20006;-44
2024/04/15 06:00:32;;;;;;;1.15;0.82;;;20.00;91.90;;;;;;5451736;26;19995;-44
2024/04/15 06:02:58;;;;;;;4.80;1.10;;;20.00;91.90;;;;;;5450038;26;20466;-41
2024/04/15 06:05:25;;;;;;;2.47;1.00;;;20.00;91.90;;;;;;5451584;26;20002;-41
2024/04/15 06:07:52;;;;;;;3.30;0.90;;;20.00;91.90;;;;;;5451612;26;19999;-41
2024/04/15 06:10:17;;;;;;;1.65;0.80;;;19.90;91.80;;;;;;5451388;26;20002;-43
2024/04/15 06:12:43;;;;;;;2.00;0.82;;;20.00;91.80;;;;;;5451507;26;20010;-40
2024/04/15 06:15:09;;;;;;;2.35;0.80;;;20.00;91.80;;;;;;5451795;26;19998;-40
2024/04/15 06:17:34;;;;;;;1.98;1.15;;;20.00;91.80;;;;;;5451607;26;20002;-45
2024/04/15 06:20:00;;;;;;;3.83;1.00;;;20.00;91.80;;;;;;5451530;26;20072;-40
2024/04/15 06:22:26;;;;;;;1.73;1.00;;;19.90;91.80;;;;;;5451370;26;19995;-43
2024/04/15 06:24:51;;;;;;;1.67;0.88;;;19.90;91.90;;;;;;5451361;26;19992;-41
2024/04/15 06:27:18;;;;;;;2.63;0.90;;;19.90;91.80;;;;;;5451267;26;19995;-42
2024/04/15 06:29:44;;;;;;;1.23;0.80;;;19.90;91.80;;;;;;5451267;26;19998;-42
2024/04/15 06:32:09;;;;;;;1.65;0.98;;;19.90;91.80;;;;;;5451102;26;20021;-44
2024/04/15 06:34:35;;;;;;;1.65;0.88;;;19.90;91.80;;;;;;5451142;26;20005;-40
2024/04/15 06:37:00;;;;;;;1.30;0.73;;;19.90;92.20;;;;;;5451200;26;19999;-41
2024/04/15 06:39:27;;;;;;;4.13;0.98;;;19.90;91.80;;;;;;5451357;26;19995;-41
2024/04/15 06:41:52;;;;;;;5.85;1.20;;;19.90;91.30;;;;;;5450742;26;20018;-42
2024/04/15 06:44:18;;;;;;;4.35;1.10;;;19.80;91.10;;;;;;5451030;26;19995;-42
2024/04/15 06:46:44;;;;;;;4.13;0.85;;;19.80;90.90;;;;;;5451852;26;19999;-40
2024/04/15 06:49:09;;;;;;;6.65;1.10;;;19.70;91.10;;;;;;5454492;26;20005;-41
2024/04/15 06:51:37;;;;;;;4.65;1.33;;;19.70;91.30;;;;;;5454449;26;20002;-41
2024/04/15 06:54:04;;;;;;;3.28;1.33;;;19.70;91.40;;;;;;5454333;26;20027;-41
2024/04/15 06:56:29;;;;;;;1.80;0.93;;;19.70;91.40;;;;;;5454540;26;19998;-41
2024/04/15 06:58:55;;;;;;;2.08;0.85;;;19.70;91.40;;;;;;5454291;26;19999;-42
2024/04/15 07:01:20;;;;;;;2.38;0.88;;;19.70;91.50;;;;;;5454178;26;20507;-41
2024/04/15 07:03:46;;;;;;;2.80;1.02;;;19.70;91.50;;;;;;5454448;26;20006;-45
2024/04/15 07:06:12;;;;;;;7.03;1.20;;;19.70;91.50;;;;;;5454301;26;20010;-45
2024/04/15 07:08:38;;;;;;;2.92;1.08;;;19.70;91.10;;;;;;5454157;26;20014;-43
2024/04/15 07:11:04;;;;;;;3.70;1.00;;;19.70;91.20;;;;;;5454094;26;20464;-44
2024/04/15 07:13:31;;;;;;;2.45;0.93;;;19.60;91.00;;;;;;5454133;26;19995;-44
2024/04/15 07:15:57;;;;;;;2.63;1.10;;;19.60;91.10;;;;;;5454122;26;20417;-42
2024/04/15 07:18:23;;;;;;;4.95;1.10;;;19.60;91.20;;;;;;5454306;26;20006;-44
2024/04/15 07:20:48;;;;;;;4.10;1.30;;;19.60;91.20;;;;;;5454115;26;20071;-45
2024/04/15 07:23:14;;;;;;;4.15;1.27;;;19.60;91.20;;;;;;5453920;26;20007;-42
2024/04/15 07:25:39;;;;;;;4.20;1.00;;;19.60;91.30;;;;;;5454017;26;19991;-44
2024/04/15 07:28:05;;;;;;;6.30;1.30;;;19.70;91.30;;;;;;5453831;26;20409;-41
2024/04/15 07:30:31;;;;;;;5.70;1.38;;;19.70;91.30;;;;;;5453827;26;19999;-45
2024/04/15 07:32:57;;;;;;;4.72;1.20;;;19.70;91.40;;;;;;5453885;26;20336;-44
2024/04/15 07:35:22;;;;;;;2.75;1.10;;;19.70;91.40;;;;;;5453881;26;20007;-40
2024/04/15 07:37:48;;;;;;;3.92;1.10;;;19.70;91.30;;;;;;5453698;26;20003;-40
2024/04/15 07:40:14;;;;;;;3.97;0.93;;;19.70;91.30;;;;;;5453648;26;19999;-44
2024/04/15 07:42:42;;;;;;;4.05;0.93;;;19.80;91.30;;;;;;5453870;26;20465;-41
2024/04/15 07:45:08;;;;;;;3.15;1.02;;;19.80;91.30;;;;;;5453865;26;20009;-41
2024/04/15 07:47:34;;;;;;;4.65;1.05;;;19.80;91.30;;;;;;5453917;26;20363;-44
2024/04/15 07:49:59;;;;;;;6.55;1.10;;;19.80;91.30;;;;;;5453828;26;20395;-40
2024/04/15 07:52:25;;;;;;;4.85;0.90;;;19.90;91.30;;;;;;5453339;26;19999;-43
2024/04/15 07:54:51;;;;;;;8.15;1.52;;;19.90;91.20;;;;;;5453784;26;20019;-41
2024/04/15 07:57:18;;;;;;;5.30;1.55;;;19.90;91.10;;;;;;5427901;26;20011;-39
2024/04/15 07:59:43;;;;;;;3.92;1.52;;;19.80;91.30;;;;;;5416810;26;19999;-42
2024/04/15 08:02:09;;;;;;;7.40;1.60;;;19.70;91.40;;;;;;5414770;26;19999;-41
2024/04/15 08:04:36;;;;;;;6.88;1.70;;;19.70;91.90;;;;;;5417994;26;20010;-39
2024/04/15 08:07:01;;;;;;;6.15;1.35;;;19.60;92.40;;;;;;5417543;26;20007;-42
2024/04/15 08:09:27;;;;;;;7.70;1.23;;;19.60;93.00;;;;;;5417390;26;20069;-39
2024/04/15 08:11:53;;;;;;;7.15;1.33;;;19.50;93.00;;;;;;5417247;26;19996;-40
2024/04/15 08:14:21;;;;;;;7.30;1.40;;;19.50;92.70;;;;;;5417216;26;20069;-40
2024/04/15 08:16:46;;;;;;;5.13;1.40;;;19.60;93.10;;;;;;5417373;26;19999;-40
2024/04/15 08:19:12;;;;;;;4.13;1.40;;;19.60;92.90;;;;;;5417352;26;20011;-42
2024/04/15 08:21:38;;;;;;;3.35;1.30;;;19.60;93.10;;;;;;5417154;26;20009;-40
2024/04/15 08:24:04;;;;;;;5.00;1.17;;;19.70;93.10;;;;;;5417456;26;20006;-44
2024/04/15 08:26:30;;;;;;;3.70;1.33;;;19.70;93.30;;;;;;5417243;26;19996;-40
2024/04/15 08:28:55;;;;;;;3.70;1.30;;;19.70;93.20;;;;;;5417013;26;20011;-40
2024/04/15 08:31:21;;;;;;;6.07;1.17;;;19.70;93.40;;;;;;5417091;26;20049;-41
2024/04/15 08:33:47;;;;;;;5.07;1.20;;;19.80;93.20;;;;;;5417080;26;19999;-42
2024/04/15 08:36:15;;;;;;;3.65;1.23;;;19.80;93.30;;;;;;5417203;26;19992;-42
2024/04/15 08:38:44;;;;;;;4.47;1.30;;;19.80;93.30;;;;;;5417208;26;20348;-44
2024/04/15 08:41:18;;;;;;;3.35;0.93;;;19.80;93.20;;;;;;5417012;26;20006;-40
2024/04/15 08:43:45;;;;;;;3.92;1.38;;;19.80;93.10;;;;;;5417071;26;19996;-40
2024/04/15 08:46:19;;;;;;;4.72;1.10;;;19.80;92.90;;;;;;5417025;26;20011;-41
2024/04/15 08:48:44;;;;;;;2.40;0.95;;;19.90;93.00;;;;;;5416849;26;20003;-40
2024/04/15 08:51:10;;;;;;;3.03;1.20;;;19.90;92.90;;;;;;5416794;26;20032;-44
2024/04/15 08:53:36;;;;;;;2.92;1.00;;;19.90;92.80;;;;;;5416756;26;20003;-40
2024/04/15 08:56:01;;;;;;;2.08;0.82;;;19.90;92.70;;;;;;5416884;26;19995;-40
2024/04/15 08:58:28;;;;;;;2.58;1.00;;;19.90;92.60;;;;;;5416303;26;19995;-42
2024/04/15 09:00:54;;;;;;;3.13;1.00;;;20.00;92.60;;;;;;5416671;26;20019;-40
2024/04/15 09:03:20;;;;;;;1.50;0.75;;;20.00;92.50;;;;;;5416670;26;20069;-44
2024/04/15 09:05:46;;;;;;;2.53;0.98;;;20.00;92.40;;;;;;5416723;26;20422;-41
2024/04/15 09:08:11;;;;;;;2.60;1.00;;;20.00;92.40;;;;;;5416560;26;19999;-41
2024/04/15 09:10:37;;;;;;;2.75;0.90;;;20.00;92.30;;;;;;5415279;26;20076;-40
2024/04/15 09:13:03;;;;;;;1.80;0.80;;;20.00;92.20;;;;;;5414607;26;20058;-42
2024/04/15 09:15:28;;;;;;;3.17;1.00;;;20.10;92.20;;;;;;5416627;26;20457;-42
2024/04/15 09:17:54;;;;;;;3.45;1.10;;;20.10;92.10;;;;;;5417007;26;20008;-41
2024/04/15 09:20:21;;;;;;;1.27;0.70;;;20.10;92.00;;;;;;5416624;26;20007;-42
2024/04/15 09:22:47;;;;;;;1.60;0.90;;;20.10;92.00;;;;;;5416516;26;20010;-42
2024/04/15 09:25:13;;;;;;;3.63;0.93;;;20.10;92.00;;;;;;5416623;26;19991;-41
2024/04/15 09:27:39;;;;;;;3.50;1.08;;;20.10;91.90;;;;;;5416193;26;20449;-42
2024/04/15 09:30:05;;;;;;;2.10;0.73;;;20.10;91.90;;;;;;5416386;26;20006;-43
2024/04/15 09:32:31;;;;;;;3.00;1.00;;;20.10;91.90;;;;;;5416389;26;19995;-43
2024/04/15 09:35:02;;;;;;;1.85;0.70;;;20.10;91.90;;;;;;5416194;26;20006;-42
2024/04/15 09:37:28;;;;;;;1.38;0.70;;;20.20;91.90;;;;;;5416340;26;20003;-40
2024/04/15 09:39:55;;;;;;;1.95;0.73;;;20.10;91.90;;;;;;5416204;26;20044;-41
2024/04/15 09:42:21;;;;;;;1.67;0.88;;;20.10;91.80;;;;;;5415988;26;20523;-40
2024/04/15 09:44:51;;;;;;;1.52;0.75;;;20.10;91.80;;;;;;5416104;26;20006;-41
2024/04/15 09:47:18;;;;;;;1.95;0.90;;;20.20;91.80;;;;;;5416066;26;20028;-42
2024/04/15 09:49:46;;;;;;;1.52;0.70;;;20.20;91.80;;;;;;5416147;26;19996;-42
2024/04/15 09:52:25;;;;;;;1.60;0.90;;;20.20;91.80;;;;;;5415916;26;19996;-43
2024/04/15 09:54:57;;;;;;;1.60;0.57;;;20.20;91.80;;;;;;5416009;26;20011;-40
2024/04/15 09:57:26;;;;;;;2.40;0.82;;;20.20;91.80;;;;;;5416098;26;20359;-42
2024/04/15 09:59:57;;;;;;;2.30;1.00;;;20.20;91.80;;;;;;5415963;26;20006;-42
2024/04/15 10:02:40;;;;;;;1.85;0.80;;;20.20;91.80;;;;;;5415816;26;20476;-41
2024/04/15 10:05:21;;;;;;;1.73;0.75;;;20.20;91.80;;;;;;5415655;26;20059;-40
2024/04/15 10:07:51;;;;;;;3.90;0.85;;;20.20;92.00;;;;;;5415679;26;20000;-41
2024/04/15 10:10:17;;;;;;;2.08;0.65;;;20.20;91.70;;;;;;5415626;26;20347;-42
2024/04/15 10:12:44;;;;;;;2.88;0.73;;;20.20;91.70;;;;;;5415665;26;20348;-40
2024/04/15 10:15:11;;;;;;;2.00;0.70;;;20.20;91.70;;;;;;5415598;26;19992;-40
2024/04/15 10:17:37;;;;;;;2.00;0.90;;;20.20;91.70;;;;;;5415384;26;19999;-40
2024/04/15 10:20:10;;;;;;;2.80;1.02;;;20.20;91.70;;;;;;5415259;26;20437;-40
2024/04/15 10:22:39;;;;;;;1.40;0.60;;;20.20;91.70;;;;;;5415562;26;20009;-41
2024/04/15 10:25:07;;;;;;;1.70;0.88;;;20.20;91.80;;;;;;5415474;26;20058;-42
2024/04/15 10:27:33;;;;;;;1.17;0.77;;;20.20;91.70;;;;;;5415259;26;19999;-40
2024/04/15 10:29:59;;;;;;;2.95;0.80;;;20.20;91.70;;;;;;5415417;26;20000;-42
2024/04/15 10:32:25;;;;;;;1.35;0.70;;;20.20;91.70;;;;;;5415293;26;20325;-39
2024/04/15 10:34:53;;;;;;;1.17;0.70;;;20.20;91.70;;;;;;5415373;26;20005;-42
2024/04/15 10:37:28;;;;;;;2.17;1.00;;;20.20;91.60;;;;;;5415324;26;19996;-40
2024/04/15 10:40:00;;;;;;;3.42;0.80;;;20.20;91.60;;;;;;5415398;26;19996;-41
2024/04/15 10:42:26;;;;;;;2.05;0.70;;;20.20;91.60;;;;;;5414922;26;20068;-40
2024/04/15 10:44:52;;;;;;;1.35;0.60;;;20.20;91.70;;;;;;5415035;26;20448;-40
2024/04/15 10:47:17;;;;;;;1.85;0.77;;;20.20;91.70;;;;;;5415179;26;19996;-42
2024/04/15 10:49:43;;;;;;;1.33;0.63;;;20.20;91.60;;;;;;5415461;26;20053;-42
2024/04/15 10:52:08;;;;;;;1.27;0.75;;;20.20;91.60;;;;;;5414980;26;20038;-42
2024/04/15 10:54:34;;;;;;;2.80;0.90;;;20.10;91.60;;;;;;5415081;26;20011;-41
2024/04/15 10:57:00;;;;;;;1.73;0.70;;;20.10;91.60;;;;;;5414572;26;20362;-42
2024/04/15 10:59:26;;;;;;;2.28;0.88;;;20.20;91.60;;;;;;5414882;26;20001;-42
2024/04/15 11:01:51;;;;;;;1.77;0.63;;;20.10;91.60;;;;;;5414838;26;20006;-39
2024/04/15 11:04:17;;;;;;;2.55;0.70;;;20.10;91.60;;;;;;5414905;26;19995;-40
2024/04/15 11:06:46;;;;;;;1.65;0.80;;;20.10;91.60;;;;;;5414795;26;20000;-40
2024/04/15 11:09:11;;;;;;;2.05;0.80;;;20.10;91.60;;;;;;5414704;26;19995;-40
2024/04/15 11:11:38;;;;;;;1.40;0.60;;;20.10;91.60;;;;;;5414546;26;20073;-42
2024/04/15 11:14:10;;;;;;;1.10;0.73;;;20.10;91.60;;;;;;5414598;26;20045;-42
2024/04/15 11:16:36;;;;;;;1.65;0.70;;;20.10;91.60;;;;;;5414909;26;20003;-42
2024/04/15 11:19:06;;;;;;;1.65;0.70;;;20.10;91.60;;;;;;5412788;26;20011;-40
2024/04/15 11:21:31;;;;;;;4.50;0.75;;;20.10;91.60;;;;;;5414342;26;20340;-40
2024/04/15 11:23:57;;;;;;;1.80;0.82;;;20.10;91.60;;;;;;5414399;26;20011;-42
2024/04/15 11:26:23;;;;;;;1.63;0.75;;;20.10;91.60;;;;;;5414259;26;19996;-42
2024/04/15 11:28:49;;;;;;;2.30;0.85;;;20.10;91.60;;;;;;5414259;26;20010;-41
2024/04/15 11:31:15;;;;;;;2.15;1.00;;;20.10;91.60;;;;;;5414245;26;19996;-42
2024/04/15 11:33:41;;;;;;;1.30;0.57;;;20.10;91.60;;;;;;5416612;26;19999;-42
2024/04/15 11:36:14;;;;;;;1.98;0.70;;;20.10;91.60;;;;;;5418084;26;20399;-43
2024/04/15 11:38:40;;;;;;;1.02;0.60;;;20.10;91.60;;;;;;5417930;26;19999;-40
2024/04/15 11:41:06;;;;;;;2.17;0.70;;;20.10;91.60;;;;;;5417725;26;20011;-40
2024/04/15 11:43:33;;;;;;;2.45;0.80;;;20.10;91.70;;;;;;5417893;26;20445;-42
2024/04/15 11:45:59;;;;;;;1.75;0.90;;;20.10;91.70;;;;;;5417829;26;19996;-42
2024/04/15 11:48:25;;;;;;;1.88;0.93;;;20.10;91.70;;;;;;5417760;26;20006;-42
2024/04/15 11:50:53;;;;;;;1.30;0.70;;;20.10;91.80;;;;;;5417588;26;20005;-42
2024/04/15 11:53:24;;;;;;;1.20;0.70;;;20.10;91.80;;;;;;5417654;26;20023;-42
2024/04/15 11:55:53;;;;;;;1.88;0.70;;;20.10;91.80;;;;;;5417637;26;20010;-41
2024/04/15 11:58:20;;;;;;;3.47;0.90;;;20.10;91.90;;;;;;5417558;26;20370;-42
2024/04/15 12:00:46;;;;;;;3.05;0.80;;;20.10;91.90;;;;;;5417532;26;20467;-42
2024/04/15 12:03:12;;;;;;;2.00;0.70;;;20.10;91.90;;;;;;5417482;26;19995;-42
2024/04/15 12:05:38;;;;;;;2.72;0.88;;;20.10;91.90;;;;;;5417785;26;20010;-42
2024/04/15 12:08:04;;;;;;;2.17;0.60;;;20.10;92.00;;;;;;5417490;26;20007;-42
2024/04/15 12:10:30;;;;;;;1.60;0.90;;;20.10;92.00;;;;;;5417389;26;20068;-40
2024/04/15 12:12:55;;;;;;;1.17;0.70;;;20.10;92.00;;;;;;5417472;26;20007;-40
2024/04/15 12:15:22;;;;;;;1.60;0.70;;;20.10;92.00;;;;;;5417395;26;20369;-39
2024/04/15 12:17:47;;;;;;;1.92;0.93;;;20.10;92.10;;;;;;5417420;26;20429;-40
2024/04/15 12:20:13;;;;;;;2.15;0.80;;;20.00;92.10;;;;;;5417718;26;20053;-42
2024/04/15 12:22:38;;;;;;;1.88;0.88;;;20.00;92.10;;;;;;5417529;26;20072;-40
2024/04/15 12:25:04;;;;;;;2.38;0.70;;;20.10;92.10;;;;;;5417062;26;20002;-40
2024/04/15 12:27:30;;;;;;;2.75;0.90;;;20.10;92.10;;;;;;5417207;26;19999;-39
2024/04/15 12:29:56;;;;;;;1.58;0.90;;;20.10;92.10;;;;;;5417242;26;20000;-39
2024/04/15 12:32:22;;;;;;;1.52;0.90;;;20.10;92.10;;;;;;5416910;26;20000;-39
2024/04/15 12:34:47;;;;;;;2.05;0.93;;;20.10;92.10;;;;;;5417199;26;20003;-39
2024/04/15 12:37:13;;;;;;;3.58;0.90;;;20.10;92.10;;;;;;5417088;26;19996;-42
2024/04/15 12:39:40;;;;;;;2.35;0.98;;;20.10;92.10;;;;;;5416920;26;20348;-40
2024/04/15 12:42:06;;;;;;;2.08;0.82;;;20.10;92.10;;;;;;5417047;26;20372;-42